Terminal Aerodrome Forecast
Issued by NWS

Home | Current Version | Previous Version | Text Only | Print | Product List | Glossary On
Versions: 1 2 3 4 5 6 7 8 9 10 11
000
FTAK31 PAFA 132332
TAFAOR
TAF
PAOR 132332Z 1400/1424 08003KT P6SM FEW130 BKN170 BKN250
     FM141600 00000KT P6SM -SN OVC025=

USA.gov is the U.S. government's official web portal to all federal, state and local government web resources and services.